Time;durP1;ratioP1;P1;durP2;ratioP2;P2;SDS_P1;SDS_P2;PMS_P1;PMS_P2;Temp;Humidity;BMP_temperature;BMP_pressure;BME280_temperature;BME280_humidity;BME280_pressure;Samples;Min_cycle;Max_cycle;Signal;HPM_P1;HPM_P2
2023/04/14 00:00:24;;;;;;;23.55;10.75;;;;;;;;;;5053404;28;20437;-84
2023/04/14 00:02:49;;;;;;;19.48;10.95;;;;;;;;;;5052687;28;20490;-84
2023/04/14 00:05:15;;;;;;;24.52;10.15;;;;;;;;;;5036369;28;20429;-83
2023/04/14 00:07:40;;;;;;;22.95;10.30;;;;;;;;;;5036548;28;20531;-82
2023/04/14 00:10:06;;;;;;;24.25;10.02;;;;;;;;;;5036612;28;20075;-85
2023/04/14 00:12:31;;;;;;;19.55;9.55;;;;;;;;;;5036800;28;20062;-84
2023/04/14 00:14:57;;;;;;;23.38;10.10;;;;;;;;;;5052741;28;20347;-84
2023/04/14 00:17:22;;;;;;;19.58;9.68;;;;;;;;;;5053697;28;20036;-86
2023/04/14 00:19:48;;;;;;;21.92;9.73;;;;;;;;;;5052008;28;20514;-86
2023/04/14 00:22:13;;;;;;;20.15;9.85;;;;;;;;;;5053708;28;20081;-83
2023/04/14 00:24:42;;;;;;;24.80;10.13;;;;;;;;;;5069444;28;20358;-85
2023/04/14 00:27:11;;;;;;;23.05;9.57;;;;;;;;;;5052904;28;20079;-84
2023/04/14 00:29:39;;;;;;;22.02;9.82;;;;;;;;;;5036417;28;20032;-85
2023/04/14 00:32:06;;;;;;;22.65;9.77;;;;;;;;;;5052257;28;20540;-85
2023/04/14 00:34:31;;;;;;;20.48;10.20;;;;;;;;;;5052857;28;20083;-84
2023/04/14 00:37:00;;;;;;;22.15;10.18;;;;;;;;;;5069159;28;20033;-85
2023/04/14 00:39:25;;;;;;;19.45;10.18;;;;;;;;;;5069255;28;20075;-85
2023/04/14 00:41:51;;;;;;;22.05;10.40;;;;;;;;;;5069161;28;20064;-85
2023/04/14 00:44:17;;;;;;;19.20;10.00;;;;;;;;;;5052448;28;20103;-84
2023/04/14 00:46:42;;;;;;;32.47;10.30;;;;;;;;;;5052283;28;20029;-85
2023/04/14 00:49:08;;;;;;;25.63;11.10;;;;;;;;;;5036069;28;20059;-84
2023/04/14 00:51:33;;;;;;;25.02;10.25;;;;;;;;;;5052490;28;20370;-84
2023/04/14 00:54:01;;;;;;;22.75;10.38;;;;;;;;;;5052136;28;20024;-84
2023/04/14 00:56:26;;;;;;;21.92;10.25;;;;;;;;;;5036099;28;20029;-85
2023/04/14 00:58:52;;;;;;;36.25;18.20;;;;;;;;;;5052709;28;20343;-85
2023/04/14 01:01:17;;;;;;;38.78;19.90;;;;;;;;;;5058726;28;20121;-84
2023/04/14 01:03:43;;;;;;;32.25;16.17;;;;;;;;;;5093656;28;20043;-85
2023/04/14 01:06:08;;;;;;;31.42;12.95;;;;;;;;;;5075884;28;20036;-83
2023/04/14 01:08:34;;;;;;;26.13;11.07;;;;;;;;;;5092517;28;20028;-83
2023/04/14 01:11:12;;;;;;;20.33;9.75;;;;;;;;;;5075830;28;20383;-83
2023/04/14 01:13:47;;;;;;;17.67;9.02;;;;;;;;;;5092441;28;20028;-84
2023/04/14 01:16:26;;;;;;;17.70;9.38;;;;;;;;;;5076229;28;20044;-84
2023/04/14 01:19:22;;;;;;;19.63;8.63;;;;;;;;;;5056747;28;20024;-83
2023/04/14 01:21:50;;;;;;;22.85;9.35;;;;;;;;;;5072282;28;20029;-85
2023/04/14 01:24:15;;;;;;;16.48;8.27;;;;;;;;;;5054946;28;20111;-85
2023/04/14 01:26:41;;;;;;;19.02;8.80;;;;;;;;;;5072098;28;20105;-83
2023/04/14 01:29:37;;;;;;;29.08;8.85;;;;;;;;;;5055381;28;20029;-84
2023/04/14 01:32:04;;;;;;;23.33;8.77;;;;;;;;;;5072189;28;20035;-85
2023/04/14 01:34:42;;;;;;;14.80;8.43;;;;;;;;;;5055741;28;20067;-85
2023/04/14 01:37:11;;;;;;;13.63;7.72;;;;;;;;;;5072107;28;20066;-84
2023/04/14 01:39:41;;;;;;;16.50;8.23;;;;;;;;;;5055912;28;20029;-84
2023/04/14 01:42:12;;;;;;;17.65;8.60;;;;;;;;;;5055519;28;20025;-85
2023/04/14 01:44:38;;;;;;;19.70;9.18;;;;;;;;;;5055121;28;20043;-83
2023/04/14 01:47:06;;;;;;;32.88;12.60;;;;;;;;;;5055801;28;20500;-84
2023/04/14 01:49:32;;;;;;;36.30;17.88;;;;;;;;;;5055371;28;20024;-84
2023/04/14 01:51:57;;;;;;;46.60;22.38;;;;;;;;;;5055305;28;20024;-85
2023/04/14 01:54:23;;;;;;;33.78;17.92;;;;;;;;;;5055145;28;20151;-85
2023/04/14 01:56:50;;;;;;;32.45;14.80;;;;;;;;;;5055255;28;20122;-85
2023/04/14 01:59:15;;;;;;;29.88;13.07;;;;;;;;;;5055173;28;20445;-84
2023/04/14 02:01:41;;;;;;;26.20;13.27;;;;;;;;;;5072327;28;20132;-86
2023/04/14 02:04:06;;;;;;;23.00;11.68;;;;;;;;;;5055368;28;20081;-85
2023/04/14 02:06:32;;;;;;;26.83;11.10;;;;;;;;;;5057208;28;20058;-85
2023/04/14 02:08:59;;;;;;;21.58;11.02;;;;;;;;;;5075335;28;20025;-86
2023/04/14 02:11:25;;;;;;;23.23;11.30;;;;;;;;;;5058868;28;20020;-84
2023/04/14 02:13:50;;;;;;;24.15;10.93;;;;;;;;;;5041733;28;20038;-85
2023/04/14 02:16:16;;;;;;;23.35;10.02;;;;;;;;;;5058576;28;20031;-84
2023/04/14 02:18:41;;;;;;;19.92;9.85;;;;;;;;;;5064808;28;20025;-83
2023/04/14 02:21:07;;;;;;;27.83;11.23;;;;;;;;;;5075005;28;20476;-85
2023/04/14 02:23:35;;;;;;;23.25;10.75;;;;;;;;;;5075067;28;20024;-84
2023/04/14 02:26:04;;;;;;;26.17;13.48;;;;;;;;;;5076359;28;20036;-83
2023/04/14 02:28:33;;;;;;;33.63;14.85;;;;;;;;;;5074636;28;20115;-83
2023/04/14 02:30:59;;;;;;;31.00;15.13;;;;;;;;;;5058219;28;20124;-85
2023/04/14 02:33:27;;;;;;;35.20;14.35;;;;;;;;;;5058112;28;20036;-83
2023/04/14 02:36:15;;;;;;;34.33;14.57;;;;;;;;;;5074741;28;20075;-83
2023/04/14 02:38:46;;;;;;;30.50;14.32;;;;;;;;;;5074666;28;20438;-84
2023/04/14 02:41:22;;;;;;;39.00;15.52;;;;;;;;;;5058100;28;20068;-85
2023/04/14 02:43:51;;;;;;;37.05;15.30;;;;;;;;;;5074788;28;20370;-85
2023/04/14 02:46:16;;;;;;;37.97;15.95;;;;;;;;;;5058030;28;20495;-84
2023/04/14 02:48:42;;;;;;;30.38;15.57;;;;;;;;;;5057987;28;20032;-84
2023/04/14 02:51:08;;;;;;;37.25;15.75;;;;;;;;;;5058051;28;20028;-84
2023/04/14 02:53:34;;;;;;;28.90;14.90;;;;;;;;;;5057571;28;20036;-85
2023/04/14 02:56:00;;;;;;;25.80;14.02;;;;;;;;;;5074329;28;20592;-84
2023/04/14 02:58:27;;;;;;;26.08;14.10;;;;;;;;;;5057880;28;20044;-85
2023/04/14 03:00:53;;;;;;;31.05;15.15;;;;;;;;;;5074288;28;20040;-85
2023/04/14 03:03:19;;;;;;;29.98;14.90;;;;;;;;;;5074530;28;20192;-84
2023/04/14 03:05:45;;;;;;;27.30;13.75;;;;;;;;;;5057671;28;20068;-85
2023/04/14 03:08:11;;;;;;;28.80;13.70;;;;;;;;;;5074231;28;20035;-84
2023/04/14 03:10:37;;;;;;;72.28;26.17;;;;;;;;;;5057305;28;20449;-84
2023/04/14 03:13:02;;;;;;;33.33;15.57;;;;;;;;;;5057478;28;20136;-84
2023/04/14 03:15:28;;;;;;;34.92;13.93;;;;;;;;;;5090937;28;20032;-84
2023/04/14 03:17:55;;;;;;;33.05;13.85;;;;;;;;;;5057368;28;20028;-84
2023/04/14 03:20:22;;;;;;;29.33;12.73;;;;;;;;;;5084887;28;20028;-83
2023/04/14 03:22:48;;;;;;;32.53;13.50;;;;;;;;;;5057652;28;20089;-84
2023/04/14 03:25:14;;;;;;;34.55;14.13;;;;;;;;;;5074726;28;20031;-85
2023/04/14 03:27:40;;;;;;;29.50;14.40;;;;;;;;;;5057661;28;20028;-84
2023/04/14 03:30:06;;;;;;;29.90;14.00;;;;;;;;;;5057172;28;20446;-85
2023/04/14 03:32:38;;;;;;;33.22;14.45;;;;;;;;;;5040376;28;20090;-83
2023/04/14 03:35:05;;;;;;;33.63;15.23;;;;;;;;;;5057578;28;20032;-84
2023/04/14 03:37:31;;;;;;;30.90;14.18;;;;;;;;;;5057594;28;20033;-86
2023/04/14 03:40:00;;;;;;;33.38;14.88;;;;;;;;;;5056704;28;20465;-83
2023/04/14 03:42:27;;;;;;;36.65;14.73;;;;;;;;;;5057259;28;20020;-84
2023/04/14 03:44:54;;;;;;;33.25;14.02;;;;;;;;;;5056970;28;20032;-84
2023/04/14 03:47:22;;;;;;;32.28;14.13;;;;;;;;;;5056960;28;20024;-84
2023/04/14 03:49:47;;;;;;;34.63;13.95;;;;;;;;;;5056995;28;20448;-84
2023/04/14 03:52:13;;;;;;;28.63;12.52;;;;;;;;;;5040462;28;20131;-83
2023/04/14 03:54:39;;;;;;;27.85;13.13;;;;;;;;;;5056448;28;20031;-85
2023/04/14 03:57:05;;;;;;;25.73;12.77;;;;;;;;;;5039838;28;20356;-84
2023/04/14 03:59:30;;;;;;;29.98;12.68;;;;;;;;;;5073480;28;20525;-84
2023/04/14 04:01:56;;;;;;;27.55;13.40;;;;;;;;;;5056556;28;20045;-84
2023/04/14 04:04:22;;;;;;;31.80;13.48;;;;;;;;;;5039977;28;20021;-84
2023/04/14 04:06:49;;;;;;;36.40;14.07;;;;;;;;;;5056657;28;20503;-84
2023/04/14 04:09:14;;;;;;;31.38;13.65;;;;;;;;;;5056739;28;20021;-85
2023/04/14 04:11:41;;;;;;;30.17;14.07;;;;;;;;;;5056344;28;20024;-83
2023/04/14 04:14:06;;;;;;;27.88;13.43;;;;;;;;;;5056390;28;20049;-85
2023/04/14 04:16:32;;;;;;;27.30;13.35;;;;;;;;;;5056409;28;20408;-85
2023/04/14 04:18:57;;;;;;;32.17;13.57;;;;;;;;;;5072919;28;20036;-84
2023/04/14 04:21:23;;;;;;;31.83;13.80;;;;;;;;;;5049883;28;20025;-85
2023/04/14 04:23:51;;;;;;;26.73;13.10;;;;;;;;;;5051928;28;20024;-85
2023/04/14 04:26:18;;;;;;;39.72;14.50;;;;;;;;;;5072773;28;20035;-85
2023/04/14 04:28:43;;;;;;;34.70;14.82;;;;;;;;;;5072178;28;20024;-84
2023/04/14 04:31:09;;;;;;;38.08;14.02;;;;;;;;;;5072607;28;20432;-84
2023/04/14 04:33:34;;;;;;;27.58;13.32;;;;;;;;;;5072491;28;20039;-85
2023/04/14 04:36:00;;;;;;;35.63;14.30;;;;;;;;;;5073206;28;20103;-85
2023/04/14 04:38:26;;;;;;;32.45;13.25;;;;;;;;;;5072414;28;20037;-86
2023/04/14 04:40:51;;;;;;;28.40;13.90;;;;;;;;;;5072567;28;20028;-84
2023/04/14 04:43:18;;;;;;;35.38;14.43;;;;;;;;;;5055930;28;20347;-85
2023/04/14 04:46:11;;;;;;;33.58;14.52;;;;;;;;;;5089190;28;20063;-85
2023/04/14 04:48:37;;;;;;;36.05;15.60;;;;;;;;;;5072434;28;20396;-85
2023/04/14 04:51:02;;;;;;;41.33;14.88;;;;;;;;;;5072613;28;20052;-85
2023/04/14 04:53:28;;;;;;;45.67;15.57;;;;;;;;;;5055563;28;20083;-85
2023/04/14 04:55:54;;;;;;;43.03;15.77;;;;;;;;;;5073181;28;20029;-86
2023/04/14 04:58:23;;;;;;;32.63;15.10;;;;;;;;;;5055615;28;20458;-85
2023/04/14 05:00:48;;;;;;;33.38;14.75;;;;;;;;;;5073799;28;20081;-85
2023/04/14 05:03:13;;;;;;;40.00;14.55;;;;;;;;;;5072391;28;20437;-85
2023/04/14 05:05:39;;;;;;;36.72;15.80;;;;;;;;;;5056323;28;20031;-85
2023/04/14 05:08:06;;;;;;;39.50;15.50;;;;;;;;;;5072277;28;20024;-85
2023/04/14 05:10:35;;;;;;;40.58;15.10;;;;;;;;;;5081591;28;20004;-86
2023/04/14 05:13:00;;;;;;;40.25;15.55;;;;;;;;;;5081253;28;20059;-85
2023/04/14 05:15:26;;;;;;;34.83;15.20;;;;;;;;;;5086429;28;20029;-84
2023/04/14 05:17:51;;;;;;;34.95;15.43;;;;;;;;;;5083986;28;20033;-84
2023/04/14 05:20:17;;;;;;;39.75;16.17;;;;;;;;;;5070707;28;20080;-83
2023/04/14 05:22:42;;;;;;;41.92;16.30;;;;;;;;;;5084532;28;20040;-84
2023/04/14 05:25:08;;;;;;;37.78;15.30;;;;;;;;;;5075397;28;20023;-83
2023/04/14 05:27:33;;;;;;;46.92;16.77;;;;;;;;;;5055871;28;20120;-83
2023/04/14 05:29:59;;;;;;;40.08;15.68;;;;;;;;;;5053720;28;20059;-86
2023/04/14 05:32:26;;;;;;;32.40;14.77;;;;;;;;;;5054544;28;20095;-84
2023/04/14 05:34:52;;;;;;;35.13;15.82;;;;;;;;;;5019988;28;20029;-84
2023/04/14 05:37:18;;;;;;;43.15;16.75;;;;;;;;;;5018949;28;20029;-84
2023/04/14 05:39:43;;;;;;;44.78;17.23;;;;;;;;;;5052014;28;20112;-84
2023/04/14 05:42:09;;;;;;;41.05;16.75;;;;;;;;;;5055127;28;20064;-84
2023/04/14 05:44:34;;;;;;;46.78;17.13;;;;;;;;;;5056885;28;20038;-83
2023/04/14 05:47:00;;;;;;;49.58;19.42;;;;;;;;;;5055863;28;20025;-84
2023/04/14 05:49:26;;;;;;;45.88;20.50;;;;;;;;;;5055662;28;20029;-84
2023/04/14 05:51:54;;;;;;;49.92;20.13;;;;;;;;;;5038610;28;20432;-83
2023/04/14 05:54:19;;;;;;;41.33;19.00;;;;;;;;;;5055644;28;20033;-84
2023/04/14 05:56:45;;;;;;;45.03;19.55;;;;;;;;;;5072503;28;20401;-84
2023/04/14 05:59:10;;;;;;;40.67;18.67;;;;;;;;;;5055417;28;20029;-84
2023/04/14 06:01:36;;;;;;;40.47;18.75;;;;;;;;;;5055297;28;20434;-84
2023/04/14 06:04:02;;;;;;;44.80;20.48;;;;;;;;;;5056656;28;20025;-85
2023/04/14 06:06:27;;;;;;;45.72;19.77;;;;;;;;;;5056396;28;20442;-84
2023/04/14 06:08:53;;;;;;;47.13;20.38;;;;;;;;;;5055387;28;20025;-84
2023/04/14 06:11:18;;;;;;;44.33;19.85;;;;;;;;;;5056841;28;20036;-84
2023/04/14 06:13:44;;;;;;;47.63;20.25;;;;;;;;;;5038547;28;20547;-83
2023/04/14 06:16:09;;;;;;;44.17;18.50;;;;;;;;;;5022428;28;20033;-83
2023/04/14 06:18:35;;;;;;;48.85;20.38;;;;;;;;;;5038502;28;20174;-83
2023/04/14 06:21:01;;;;;;;44.88;18.70;;;;;;;;;;5054789;28;20107;-84
2023/04/14 06:23:26;;;;;;;44.95;19.45;;;;;;;;;;5022320;28;20083;-84
2023/04/14 06:25:52;;;;;;;50.47;19.42;;;;;;;;;;5068693;28;20028;-84
2023/04/14 06:28:22;;;;;;;50.42;22.45;;;;;;;;;;5078209;28;20028;-84
2023/04/14 06:30:48;;;;;;;51.88;20.63;;;;;;;;;;5079175;28;20045;-84
2023/04/14 06:33:13;;;;;;;49.20;20.48;;;;;;;;;;5078023;28;20469;-85
2023/04/14 06:35:39;;;;;;;46.67;19.77;;;;;;;;;;5094848;28;20032;-84
2023/04/14 06:38:04;;;;;;;44.13;20.75;;;;;;;;;;5095171;28;20024;-84
2023/04/14 06:40:30;;;;;;;45.05;18.15;;;;;;;;;;5094909;28;20032;-84
2023/04/14 06:42:55;;;;;;;44.28;19.23;;;;;;;;;;5077989;28;20381;-85
2023/04/14 06:45:21;;;;;;;43.13;18.58;;;;;;;;;;5061562;28;20365;-84
2023/04/14 06:47:46;;;;;;;50.05;19.50;;;;;;;;;;5061222;28;20035;-84
2023/04/14 06:50:12;;;;;;;46.30;19.30;;;;;;;;;;5094684;28;20109;-82
2023/04/14 06:52:37;;;;;;;44.40;20.23;;;;;;;;;;5093926;28;20040;-85
2023/04/14 06:55:03;;;;;;;46.08;19.20;;;;;;;;;;5094606;28;20032;-84
2023/04/14 06:57:28;;;;;;;50.85;20.10;;;;;;;;;;5077809;28;20039;-85
2023/04/14 06:59:55;;;;;;;54.28;19.17;;;;;;;;;;5094739;28;20080;-85
2023/04/14 07:02:20;;;;;;;52.05;19.70;;;;;;;;;;5094333;28;20040;-85
2023/04/14 07:04:46;;;;;;;44.33;19.92;;;;;;;;;;5094530;28;20357;-85
2023/04/14 07:07:13;;;;;;;47.00;19.92;;;;;;;;;;5077657;28;20036;-84
2023/04/14 07:09:42;;;;;;;48.80;20.45;;;;;;;;;;5095680;28;20114;-85
2023/04/14 07:12:14;;;;;;;53.50;21.77;;;;;;;;;;5094969;28;20501;-84
2023/04/14 07:14:40;;;;;;;55.25;21.67;;;;;;;;;;5094331;28;20070;-85
2023/04/14 07:17:05;;;;;;;50.03;21.80;;;;;;;;;;5093971;28;20112;-84
2023/04/14 07:19:31;;;;;;;55.35;23.13;;;;;;;;;;5094584;28;20028;-84
2023/04/14 07:21:57;;;;;;;50.92;22.17;;;;;;;;;;5094784;28;20449;-85
2023/04/14 07:24:22;;;;;;;53.65;22.50;;;;;;;;;;5094293;28;20077;-84
2023/04/14 07:26:48;;;;;;;52.75;22.40;;;;;;;;;;5077325;28;20029;-85
2023/04/14 07:29:13;;;;;;;55.97;23.58;;;;;;;;;;5077441;28;20020;-85
2023/04/14 07:31:38;;;;;;;55.72;23.05;;;;;;;;;;5076941;28;20032;-84
2023/04/14 07:34:04;;;;;;;58.03;24.00;;;;;;;;;;5093859;28;20124;-84
2023/04/14 07:36:31;;;;;;;57.65;23.75;;;;;;;;;;5093860;28;20091;-85
2023/04/14 07:38:56;;;;;;;62.35;25.35;;;;;;;;;;5093878;28;20027;-85
2023/04/14 07:41:23;;;;;;;60.72;24.25;;;;;;;;;;5094094;28;20024;-84
2023/04/14 07:43:48;;;;;;;55.78;23.42;;;;;;;;;;5077091;28;20131;-84
2023/04/14 07:46:14;;;;;;;57.58;23.55;;;;;;;;;;5094716;28;20114;-85
2023/04/14 07:48:39;;;;;;;56.00;23.35;;;;;;;;;;5076686;28;20064;-85
2023/04/14 07:51:05;;;;;;;58.97;22.80;;;;;;;;;;5094738;28;20217;-85
2023/04/14 07:53:31;;;;;;;58.60;22.75;;;;;;;;;;5095026;28;20035;-84
2023/04/14 07:55:57;;;;;;;59.33;23.98;;;;;;;;;;5093689;28;20099;-84
2023/04/14 07:58:22;;;;;;;64.60;25.70;;;;;;;;;;5095360;28;20119;-84
2023/04/14 08:00:48;;;;;;;62.38;23.88;;;;;;;;;;5093285;28;20346;-84
2023/04/14 08:03:13;;;;;;;62.95;22.73;;;;;;;;;;5075772;28;20661;-84
2023/04/14 08:05:40;;;;;;;60.65;23.98;;;;;;;;;;5094763;28;20028;-85
2023/04/14 08:08:06;;;;;;;55.20;22.80;;;;;;;;;;5076739;28;20012;-84
2023/04/14 08:10:32;;;;;;;54.72;22.27;;;;;;;;;;5093618;28;20024;-84
2023/04/14 08:12:58;;;;;;;58.83;24.08;;;;;;;;;;5093275;28;20032;-85
2023/04/14 08:15:24;;;;;;;60.53;24.70;;;;;;;;;;5093081;28;20538;-84
2023/04/14 08:17:49;;;;;;;54.65;25.25;;;;;;;;;;5093352;28;20042;-84
2023/04/14 08:20:15;;;;;;;62.30;24.25;;;;;;;;;;5093189;28;20016;-84
2023/04/14 08:22:42;;;;;;;61.80;25.48;;;;;;;;;;5093166;28;20434;-84
2023/04/14 08:25:10;;;;;;;60.45;24.90;;;;;;;;;;5093119;28;20460;-85
2023/04/14 08:27:36;;;;;;;69.40;26.10;;;;;;;;;;5071168;28;20469;-84
2023/04/14 08:30:02;;;;;;;69.88;26.70;;;;;;;;;;5068869;28;20059;-84
2023/04/14 08:32:27;;;;;;;64.72;26.75;;;;;;;;;;5075974;28;20036;-83
2023/04/14 08:34:53;;;;;;;71.07;28.65;;;;;;;;;;5092871;28;20047;-84
2023/04/14 08:37:18;;;;;;;76.15;30.73;;;;;;;;;;5093190;28;20675;-84
2023/04/14 08:39:44;;;;;;;72.35;28.65;;;;;;;;;;5093873;28;20031;-84
2023/04/14 08:42:09;;;;;;;72.68;29.27;;;;;;;;;;5092901;28;20065;-84
2023/04/14 08:44:35;;;;;;;70.22;28.48;;;;;;;;;;5075852;28;20024;-85
2023/04/14 08:47:00;;;;;;;74.57;29.05;;;;;;;;;;5076023;28;20032;-84
2023/04/14 08:49:55;;;;;;;79.45;31.00;;;;;;;;;;5059321;28;20108;-83
2023/04/14 08:52:23;;;;;;;74.72;31.27;;;;;;;;;;5061378;28;20130;-84
2023/04/14 08:54:49;;;;;;;83.53;31.95;;;;;;;;;;5059111;28;20036;-83
2023/04/14 08:57:17;;;;;;;83.13;32.67;;;;;;;;;;5092683;28;20366;-83
2023/04/14 08:59:43;;;;;;;87.40;32.33;;;;;;;;;;5092371;28;20091;-84
2023/04/14 09:02:09;;;;;;;77.13;31.63;;;;;;;;;;5093760;28;20177;-85
2023/04/14 09:04:36;;;;;;;81.88;32.25;;;;;;;;;;5093485;28;20327;-85
2023/04/14 09:07:01;;;;;;;81.32;32.90;;;;;;;;;;5076443;28;20058;-85
2023/04/14 09:09:27;;;;;;;84.75;32.38;;;;;;;;;;5075985;28;20028;-84
2023/04/14 09:11:53;;;;;;;77.18;31.67;;;;;;;;;;5092491;28;20028;-84
2023/04/14 09:14:18;;;;;;;79.53;31.65;;;;;;;;;;5075793;28;20474;-83
2023/04/14 09:16:47;;;;;;;80.80;31.55;;;;;;;;;;5079914;28;20114;-84
2023/04/14 09:19:13;;;;;;;86.05;33.75;;;;;;;;;;5097107;28;20024;-83
2023/04/14 09:21:39;;;;;;;79.07;32.72;;;;;;;;;;5096846;28;20093;-84
2023/04/14 09:24:05;;;;;;;78.60;31.67;;;;;;;;;;5080530;28;20020;-83
2023/04/14 09:26:30;;;;;;;81.13;29.63;;;;;;;;;;5096798;28;20050;-84
2023/04/14 09:28:56;;;;;;;79.68;29.63;;;;;;;;;;5079542;28;20085;-83
2023/04/14 09:31:22;;;;;;;69.75;30.13;;;;;;;;;;5078647;28;20031;-84
2023/04/14 09:33:49;;;;;;;75.13;29.35;;;;;;;;;;5079617;28;20032;-84
2023/04/14 09:36:21;;;;;;;80.82;28.90;;;;;;;;;;5095819;28;20051;-84
2023/04/14 09:38:48;;;;;;;67.50;27.35;;;;;;;;;;5080087;28;20024;-84
2023/04/14 09:41:18;;;;;;;70.30;28.65;;;;;;;;;;5079209;28;20024;-84
2023/04/14 09:43:44;;;;;;;73.63;28.35;;;;;;;;;;5079615;28;20122;-85
2023/04/14 09:46:10;;;;;;;76.82;30.23;;;;;;;;;;5079594;28;20032;-84
2023/04/14 09:48:48;;;;;;;84.45;31.33;;;;;;;;;;5079203;28;20123;-84
2023/04/14 09:51:14;;;;;;;80.78;31.63;;;;;;;;;;5064342;28;20462;-84
2023/04/14 09:53:40;;;;;;;78.00;30.67;;;;;;;;;;5079245;28;20472;-84
2023/04/14 09:56:08;;;;;;;77.53;30.52;;;;;;;;;;5079181;28;20032;-84
2023/04/14 09:58:38;;;;;;;83.07;29.85;;;;;;;;;;5095564;28;20028;-84
2023/04/14 10:01:04;;;;;;;80.47;29.85;;;;;;;;;;5095987;28;20024;-84
2023/04/14 10:03:43;;;;;;;79.70;29.95;;;;;;;;;;5095511;28;20036;-83
2023/04/14 10:06:20;;;;;;;78.70;29.70;;;;;;;;;;5080129;28;20024;-83
2023/04/14 10:08:50;;;;;;;85.38;32.38;;;;;;;;;;5078899;28;20046;-83
2023/04/14 10:11:23;;;;;;;72.22;27.88;;;;;;;;;;5079736;28;20032;-84
2023/04/14 10:13:49;;;;;;;82.90;29.60;;;;;;;;;;5078497;28;20042;-85
2023/04/14 10:16:14;;;;;;;79.30;30.63;;;;;;;;;;5096090;28;20028;-85
2023/04/14 10:18:40;;;;;;;80.68;31.48;;;;;;;;;;5078259;28;20024;-85
2023/04/14 10:21:06;;;;;;;77.35;29.85;;;;;;;;;;5078285;28;20032;-83
2023/04/14 10:23:32;;;;;;;83.00;30.48;;;;;;;;;;5078318;28;20103;-83
2023/04/14 10:25:58;;;;;;;81.10;29.98;;;;;;;;;;5077657;28;20024;-82
2023/04/14 10:28:24;;;;;;;85.28;30.63;;;;;;;;;;5078428;28;20034;-83
2023/04/14 10:30:52;;;;;;;78.97;31.13;;;;;;;;;;5062195;28;20024;-84
2023/04/14 10:33:17;;;;;;;85.15;32.20;;;;;;;;;;5070905;28;20044;-83
2023/04/14 10:35:45;;;;;;;77.43;30.77;;;;;;;;;;5084208;28;20496;-84
2023/04/14 10:38:10;;;;;;;79.18;29.23;;;;;;;;;;5081619;28;20048;-84
2023/04/14 10:40:50;;;;;;;78.70;29.85;;;;;;;;;;5079961;28;20024;-83
2023/04/14 10:43:15;;;;;;;70.15;28.63;;;;;;;;;;5078979;28;20031;-83
2023/04/14 10:45:56;;;;;;;85.18;28.80;;;;;;;;;;5094910;28;20028;-85
2023/04/14 10:48:32;;;;;;;79.03;30.45;;;;;;;;;;5078628;28;20074;-85
2023/04/14 10:50:58;;;;;;;89.82;32.55;;;;;;;;;;5079379;28;20032;-82
2023/04/14 10:53:26;;;;;;;104.03;36.63;;;;;;;;;;5077922;28;20032;-82
2023/04/14 10:55:56;;;;;;;134.20;43.17;;;;;;;;;;5077586;28;20027;-83
2023/04/14 10:58:21;;;;;;;148.75;46.05;;;;;;;;;;5094595;28;20029;-84
2023/04/14 11:00:47;;;;;;;145.82;46.60;;;;;;;;;;5077710;28;20065;-84
2023/04/14 11:03:16;;;;;;;112.32;39.17;;;;;;;;;;5077577;28;20059;-84
2023/04/14 11:05:51;;;;;;;99.10;37.05;;;;;;;;;;5077951;28;20038;-83
2023/04/14 11:08:27;;;;;;;90.28;33.42;;;;;;;;;;5061760;28;20024;-83
2023/04/14 11:11:03;;;;;;;91.95;34.85;;;;;;;;;;5077361;28;20513;-83
2023/04/14 11:13:29;;;;;;;84.95;32.83;;;;;;;;;;5077955;28;20135;-83
2023/04/14 11:16:06;;;;;;;91.35;33.67;;;;;;;;;;5077661;28;20468;-82
2023/04/14 11:18:42;;;;;;;108.95;37.78;;;;;;;;;;5095395;28;20066;-83
2023/04/14 11:21:09;;;;;;;101.85;39.17;;;;;;;;;;5094285;28;20028;-83
2023/04/14 11:23:35;;;;;;;97.97;39.53;;;;;;;;;;5077893;28;20028;-84
2023/04/14 11:26:01;;;;;;;103.35;39.00;;;;;;;;;;5095451;28;20121;-83
2023/04/14 11:28:27;;;;;;;82.47;31.60;;;;;;;;;;5061022;28;20042;-83
2023/04/14 11:30:53;;;;;;;83.13;33.00;;;;;;;;;;5095356;28;20024;-83
2023/04/14 11:33:18;;;;;;;101.60;33.50;;;;;;;;;;5095320;28;20032;-83
2023/04/14 11:35:44;;;;;;;89.53;34.85;;;;;;;;;;5088641;28;20460;-83
2023/04/14 11:38:10;;;;;;;90.15;36.15;;;;;;;;;;5077002;28;20420;-84
2023/04/14 11:40:35;;;;;;;94.55;35.60;;;;;;;;;;5095025;28;20039;-83
2023/04/14 11:43:01;;;;;;;111.47;46.83;;;;;;;;;;5077045;28;20096;-83
2023/04/14 11:45:27;;;;;;;117.53;46.47;;;;;;;;;;5076814;28;20028;-82
2023/04/14 11:48:00;;;;;;;116.72;47.50;;;;;;;;;;5077103;28;20055;-82
2023/04/14 11:50:26;;;;;;;134.55;53.08;;;;;;;;;;5077515;28;20077;-83
2023/04/14 11:52:54;;;;;;;128.23;49.72;;;;;;;;;;5076752;28;20031;-83
2023/04/14 11:55:21;;;;;;;130.27;52.30;;;;;;;;;;5077702;28;20062;-83
2023/04/14 11:57:47;;;;;;;132.80;51.72;;;;;;;;;;5094841;28;20102;-83
2023/04/14 12:00:13;;;;;;;117.15;48.22;;;;;;;;;;5076875;28;20059;-83
2023/04/14 12:02:41;;;;;;;119.05;47.25;;;;;;;;;;5093312;28;20055;-83
2023/04/14 12:05:06;;;;;;;99.00;37.55;;;;;;;;;;5093978;28;20346;-82
2023/04/14 12:07:32;;;;;;;86.85;35.17;;;;;;;;;;5093582;28;20034;-81
2023/04/14 12:09:57;;;;;;;86.45;35.95;;;;;;;;;;5094621;28;20028;-82
2023/04/14 12:12:23;;;;;;;83.45;34.25;;;;;;;;;;5093348;28;20036;-82
2023/04/14 12:14:48;;;;;;;86.05;34.28;;;;;;;;;;5093308;28;20024;-83
2023/04/14 12:17:15;;;;;;;99.55;38.78;;;;;;;;;;5093265;28;20432;-82
2023/04/14 12:19:41;;;;;;;105.30;42.38;;;;;;;;;;5076425;28;20536;-83
2023/04/14 12:22:08;;;;;;;98.63;40.80;;;;;;;;;;5076162;28;20067;-83
2023/04/14 12:24:33;;;;;;;84.97;34.97;;;;;;;;;;5093604;28;20032;-82
2023/04/14 12:26:59;;;;;;;81.18;32.38;;;;;;;;;;5093633;28;20055;-83
2023/04/14 12:29:24;;;;;;;85.22;31.95;;;;;;;;;;5093460;28;20028;-83
2023/04/14 12:31:52;;;;;;;84.25;31.90;;;;;;;;;;5059666;28;20024;-83
2023/04/14 12:34:24;;;;;;;83.13;31.30;;;;;;;;;;5093071;28;20031;-85
2023/04/14 12:36:51;;;;;;;103.85;37.25;;;;;;;;;;5068880;28;20024;-83
2023/04/14 12:39:16;;;;;;;105.20;39.22;;;;;;;;;;5076123;28;20028;-85
2023/04/14 12:41:42;;;;;;;104.32;39.70;;;;;;;;;;5076109;28;20361;-84
2023/04/14 12:44:17;;;;;;;73.57;30.33;;;;;;;;;;5092897;28;20097;-85
2023/04/14 12:47:01;;;;;;;82.00;29.10;;;;;;;;;;5076164;28;20028;-86
2023/04/14 12:49:37;;;;;;;78.00;29.13;;;;;;;;;;5092795;28;20365;-85
2023/04/14 12:52:03;;;;;;;77.32;28.42;;;;;;;;;;5092344;28;20031;-85
2023/04/14 12:54:50;;;;;;;68.88;28.38;;;;;;;;;;5092655;28;20028;-85
2023/04/14 12:57:20;;;;;;;71.55;26.40;;;;;;;;;;5076594;28;20030;-84
2023/04/14 12:59:46;;;;;;;66.13;24.42;;;;;;;;;;5076224;28;20365;-82
2023/04/14 13:02:11;;;;;;;55.08;24.40;;;;;;;;;;5064246;28;20053;-82
2023/04/14 13:04:37;;;;;;;62.75;26.35;;;;;;;;;;5072512;28;20032;-85
2023/04/14 13:07:02;;;;;;;68.40;26.60;;;;;;;;;;5072714;28;20485;-84
2023/04/14 13:09:29;;;;;;;72.43;23.55;;;;;;;;;;5072702;28;20115;-85
2023/04/14 13:11:56;;;;;;;50.78;22.52;;;;;;;;;;5089123;28;20052;-85
2023/04/14 13:14:22;;;;;;;55.20;19.95;;;;;;;;;;5072423;28;20477;-84
2023/04/14 13:16:47;;;;;;;53.03;22.20;;;;;;;;;;5072513;28;20119;-84
2023/04/14 13:19:13;;;;;;;50.75;21.67;;;;;;;;;;5089371;28;20021;-84
2023/04/14 13:21:39;;;;;;;51.10;22.10;;;;;;;;;;5088955;28;20028;-85
2023/04/14 13:24:06;;;;;;;50.42;20.23;;;;;;;;;;5072456;28;20033;-85
2023/04/14 13:26:31;;;;;;;53.20;19.67;;;;;;;;;;5072461;28;20052;-85
2023/04/14 13:28:57;;;;;;;60.00;23.30;;;;;;;;;;5072202;28;20028;-84
2023/04/14 13:31:22;;;;;;;77.32;28.92;;;;;;;;;;5072263;28;20029;-84
2023/04/14 13:33:48;;;;;;;54.20;20.50;;;;;;;;;;5072017;28;20430;-83
2023/04/14 13:36:13;;;;;;;58.80;22.98;;;;;;;;;;5088934;28;20365;-83
2023/04/14 13:38:39;;;;;;;50.85;22.95;;;;;;;;;;5068968;28;20347;-83
2023/04/14 13:41:05;;;;;;;56.03;24.42;;;;;;;;;;5055393;28;20071;-83
2023/04/14 13:43:31;;;;;;;58.00;24.10;;;;;;;;;;5072200;28;20442;-83
2023/04/14 13:45:57;;;;;;;80.97;29.95;;;;;;;;;;5074625;28;20437;-83
2023/04/14 13:48:23;;;;;;;50.47;20.20;;;;;;;;;;5055632;28;20025;-84
2023/04/14 13:50:50;;;;;;;46.67;18.48;;;;;;;;;;5073496;28;20024;-84
2023/04/14 13:53:16;;;;;;;42.42;15.85;;;;;;;;;;5055337;28;20135;-84
2023/04/14 13:55:41;;;;;;;31.75;15.35;;;;;;;;;;5073095;28;20127;-84
2023/04/14 13:58:06;;;;;;;38.70;15.15;;;;;;;;;;5072195;28;20071;-83
2023/04/14 14:00:32;;;;;;;29.05;14.20;;;;;;;;;;5073345;28;20029;-83
2023/04/14 14:02:57;;;;;;;31.70;13.40;;;;;;;;;;5057906;28;20044;-84
2023/04/14 14:05:23;;;;;;;38.08;14.55;;;;;;;;;;5058791;28;20024;-84
2023/04/14 14:07:48;;;;;;;44.70;15.52;;;;;;;;;;5058760;28;20029;-84
2023/04/14 14:10:14;;;;;;;32.38;13.27;;;;;;;;;;5075975;28;20115;-83
2023/04/14 14:12:40;;;;;;;31.45;13.32;;;;;;;;;;5059404;28;20052;-84
2023/04/14 14:15:06;;;;;;;35.22;12.93;;;;;;;;;;5076171;28;20035;-84